Time;durP1;ratioP1;P1;durP2;ratioP2;P2;SDS_P1;SDS_P2;PMS_P1;PMS_P2;Temp;Humidity;BMP_temperature;BMP_pressure;BME280_temperature;BME280_humidity;BME280_pressure;Samples;Min_cycle;Max_cycle;Signal;HPM_P1;HPM_P2
2022/04/20 00:00:13;;;;;;;6.05;3.60;;;;;;;9.94;50.73;101460.53;5106599;28;20027;-74
2022/04/20 00:02:38;;;;;;;6.50;4.25;;;;;;;9.88;50.56;101462.34;5110223;28;20100;-74
2022/04/20 00:05:04;;;;;;;6.00;3.75;;;;;;;9.81;50.40;101465.00;5111396;28;20068;-74
2022/04/20 00:07:30;;;;;;;6.00;3.50;;;;;;;9.76;51.15;101463.31;5110464;28;20028;-74
2022/04/20 00:09:55;;;;;;;6.18;3.47;;;;;;;9.74;52.12;101470.28;5111223;28;20428;-74
2022/04/20 00:12:20;;;;;;;6.07;3.45;;;;;;;9.72;51.74;101461.63;5110370;28;20035;-74
2022/04/20 00:14:46;;;;;;;4.90;3.65;;;;;;;9.66;53.19;101459.94;5103540;28;20031;-73
2022/04/20 00:17:11;;;;;;;5.88;3.90;;;;;;;9.64;53.23;101464.28;5091766;28;20024;-74
2022/04/20 00:19:36;;;;;;;6.75;3.70;;;;;;;9.55;52.49;101464.41;5091110;28;20639;-74
2022/04/20 00:22:02;;;;;;;8.40;4.32;;;;;;;9.54;53.63;101479.13;5107954;28;20027;-74
2022/04/20 00:24:27;;;;;;;6.00;3.60;;;;;;;9.44;53.27;101476.63;5109782;28;20510;-74
2022/04/20 00:26:52;;;;;;;5.43;4.15;;;;;;;9.38;53.90;101474.94;5110722;28;20065;-74
2022/04/20 00:29:17;;;;;;;5.80;4.05;;;;;;;9.34;53.50;101478.44;5108920;28;20047;-74
2022/04/20 00:31:43;;;;;;;5.82;4.43;;;;;;;9.28;53.77;101488.91;5108944;28;20040;-74
2022/04/20 00:34:09;;;;;;;6.53;3.90;;;;;;;9.27;54.24;101481.97;5110330;28;20486;-74
2022/04/20 00:36:34;;;;;;;8.23;3.90;;;;;;;9.27;53.60;101477.63;5108387;28;20042;-74
2022/04/20 00:39:00;;;;;;;5.18;4.18;;;;;;;9.23;54.45;101472.47;5111789;28;20020;-74
2022/04/20 00:41:25;;;;;;;4.65;3.67;;;;;;;9.17;53.46;101476.00;5110886;28;20032;-74
2022/04/20 00:43:50;;;;;;;5.22;4.07;;;;;;;9.12;54.44;101477.75;5106298;28;20042;-74
2022/04/20 00:46:19;;;;;;;4.60;3.95;;;;;;;9.03;53.29;101478.69;5109486;28;20031;-74
2022/04/20 00:48:45;;;;;;;6.68;3.70;;;;;;;8.96;55.62;101476.13;5109727;28;20019;-74
2022/04/20 00:51:10;;;;;;;6.78;3.95;;;;;;;8.90;54.90;101477.06;5109301;28;20032;-75
2022/04/20 00:53:36;;;;;;;6.45;4.10;;;;;;;8.89;54.42;101480.50;5109195;28;20031;-74
2022/04/20 00:56:01;;;;;;;5.03;4.03;;;;;;;8.90;55.68;101487.44;5113027;28;20463;-73
2022/04/20 00:58:26;;;;;;;8.45;4.00;;;;;;;8.86;55.24;101491.81;5110650;28;20023;-74
2022/04/20 01:00:52;;;;;;;5.95;4.18;;;;;;;8.80;55.62;101488.38;5101676;28;20040;-74
2022/04/20 01:03:17;;;;;;;6.25;4.20;;;;;;;8.74;55.54;101488.41;5095760;28;20046;-74
2022/04/20 01:05:42;;;;;;;5.25;3.92;;;;;;;8.75;55.94;101482.34;5093613;28;20073;-74
2022/04/20 01:08:08;;;;;;;5.03;4.18;;;;;;;8.73;55.59;101481.47;5106332;28;20039;-74
2022/04/20 01:10:33;;;;;;;5.78;4.25;;;;;;;8.71;55.80;101486.69;5102633;27;20031;-74
2022/04/20 01:12:59;;;;;;;6.53;4.30;;;;;;;8.70;54.62;101487.56;5112608;28;20028;-74
2022/04/20 01:15:24;;;;;;;6.75;4.07;;;;;;;8.65;55.51;101484.97;5113527;28;20027;-74
2022/04/20 01:17:49;;;;;;;8.38;4.35;;;;;;;8.63;54.88;101493.66;5113816;28;20453;-74
2022/04/20 01:20:16;;;;;;;6.10;4.18;;;;;;;8.65;55.21;101491.91;5110154;28;20027;-74
2022/04/20 01:22:42;;;;;;;7.93;4.18;;;;;;;8.63;56.01;101488.44;5112182;28;20097;-74
2022/04/20 01:25:08;;;;;;;5.97;4.30;;;;;;;8.56;55.69;101482.41;5113084;28;20463;-74
2022/04/20 01:27:34;;;;;;;10.15;4.28;;;;;;;8.56;55.99;101491.97;5109315;28;20039;-74
2022/04/20 01:29:59;;;;;;;6.75;4.13;;;;;;;8.53;55.58;101492.81;5111816;28;20034;-74
2022/04/20 01:32:25;;;;;;;5.80;4.30;;;;;;;8.50;55.81;101486.78;5114152;28;20055;-74
2022/04/20 01:34:52;;;;;;;8.05;4.53;;;;;;;8.42;55.79;101492.03;5112757;27;20100;-74
2022/04/20 01:37:17;;;;;;;8.18;4.43;;;;;;;8.31;55.92;101476.44;5113879;27;20081;-74
2022/04/20 01:39:42;;;;;;;6.95;4.20;;;;;;;8.32;56.64;101488.56;5114260;28;20032;-74
2022/04/20 01:42:08;;;;;;;8.30;4.40;;;;;;;8.29;56.93;101496.38;5111160;28;20027;-74
2022/04/20 01:44:33;;;;;;;6.78;4.43;;;;;;;8.24;56.64;101498.13;5113368;28;20077;-74
2022/04/20 01:46:59;;;;;;;6.15;4.30;;;;;;;8.24;56.06;101494.66;5109124;28;20033;-74
2022/04/20 01:49:24;;;;;;;7.25;4.55;;;;;;;8.17;56.97;101486.00;5104479;28;20097;-74
2022/04/20 01:51:52;;;;;;;8.35;4.80;;;;;;;8.17;57.21;101499.88;5112754;28;20360;-74
2022/04/20 01:54:19;;;;;;;7.03;4.82;;;;;;;8.09;56.58;101490.38;5113834;28;20368;-74
2022/04/20 01:56:49;;;;;;;7.03;4.63;;;;;;;8.02;56.82;101489.53;5113037;28;20020;-74
2022/04/20 01:59:15;;;;;;;7.55;4.20;;;;;;;7.98;58.62;101491.28;5112573;28;20019;-74
2022/04/20 02:04:25;;;;;;;5.97;4.22;;;;;;;8.00;57.55;101487.81;5114285;28;20092;-74
2022/04/20 02:06:50;;;;;;;12.35;4.60;;;;;;;8.00;56.87;101488.66;5113301;28;20032;-74
2022/04/20 02:09:16;;;;;;;6.45;4.57;;;;;;;7.97;56.75;101486.94;5111048;28;20505;-74
2022/04/20 02:11:41;;;;;;;4.88;4.10;;;;;;;7.94;57.32;101486.94;5100611;28;20032;-74
2022/04/20 02:14:06;;;;;;;6.40;4.30;;;;;;;7.91;58.15;101493.88;5111493;28;20020;-74
2022/04/20 02:16:31;;;;;;;10.05;4.70;;;;;;;7.89;57.32;101485.25;5111728;28;20543;-74
2022/04/20 02:18:57;;;;;;;9.27;4.97;;;;;;;7.87;57.28;101480.03;5112073;28;20020;-74
2022/04/20 02:21:22;;;;;;;8.10;4.97;;;;;;;7.84;58.68;101484.38;5112927;28;20028;-74
2022/04/20 02:23:47;;;;;;;6.38;4.78;;;;;;;7.80;59.01;101480.06;5111313;28;20140;-73
2022/04/20 02:26:13;;;;;;;6.07;4.55;;;;;;;7.72;58.47;101480.94;5110285;28;20420;-73
2022/04/20 02:28:38;;;;;;;5.95;4.68;;;;;;;7.66;59.52;101475.75;5112297;28;20110;-74
2022/04/20 02:31:03;;;;;;;8.48;4.80;;;;;;;7.61;58.21;101487.84;5110996;28;20039;-74
2022/04/20 02:33:29;;;;;;;6.22;4.75;;;;;;;7.51;59.70;101473.16;5112256;28;20110;-73
2022/04/20 02:35:54;;;;;;;6.10;4.45;;;;;;;7.47;60.14;101485.28;5113407;28;20023;-74
2022/04/20 02:38:20;;;;;;;5.78;4.38;;;;;;;7.39;59.18;101489.63;5095487;28;20020;-74
2022/04/20 02:40:47;;;;;;;12.07;4.72;;;;;;;7.33;59.81;101480.97;5111319;27;20094;-74
2022/04/20 02:43:12;;;;;;;7.47;4.85;;;;;;;7.31;60.39;101482.69;5112743;28;20069;-74
2022/04/20 02:45:38;;;;;;;6.47;4.72;;;;;;;7.21;60.26;101487.00;5110927;28;20035;-74
2022/04/20 02:48:04;;;;;;;8.65;4.60;;;;;;;7.10;60.59;101489.59;5109225;28;20077;-74
2022/04/20 02:50:30;;;;;;;6.35;4.50;;;;;;;7.09;60.95;101487.84;5108939;28;20039;-74
2022/04/20 02:52:56;;;;;;;6.60;5.20;;;;;;;7.12;60.51;101497.38;5112072;28;20039;-74
2022/04/20 02:55:22;;;;;;;8.52;5.25;;;;;;;7.10;60.67;101497.38;5111529;28;20035;-74
2022/04/20 02:57:47;;;;;;;8.73;4.75;;;;;;;7.13;60.67;101499.97;5110600;28;20027;-74
2022/04/20 03:00:13;;;;;;;8.60;4.75;;;;;;;7.12;60.16;101500.81;5110400;28;20024;-74
2022/04/20 03:02:39;;;;;;;6.47;4.50;;;;;;;7.16;60.56;101494.78;5108489;28;20054;-74
2022/04/20 03:05:05;;;;;;;7.53;5.03;;;;;;;7.13;60.53;101507.75;5112071;28;20027;-74
2022/04/20 03:07:30;;;;;;;6.28;4.38;;;;;;;7.08;59.89;101503.41;5111445;28;20468;-74
2022/04/20 03:09:55;;;;;;;6.13;5.00;;;;;;;7.02;60.12;101501.66;5113136;28;20030;-74
2022/04/20 03:12:21;;;;;;;8.00;4.53;;;;;;;7.01;60.48;101495.63;5112170;28;20024;-74
2022/04/20 03:14:46;;;;;;;6.38;4.70;;;;;;;7.04;61.04;101505.16;5111916;28;20026;-74
2022/04/20 03:17:13;;;;;;;10.40;4.93;;;;;;;6.94;60.20;101488.72;5103905;28;20040;-73
2022/04/20 03:19:38;;;;;;;6.80;4.75;;;;;;;6.97;60.08;101499.09;5110421;28;20425;-74
2022/04/20 03:22:03;;;;;;;8.05;5.10;;;;;;;6.96;60.68;101499.94;5113055;28;20075;-74
2022/04/20 03:24:29;;;;;;;6.43;4.32;;;;;;;6.96;59.65;101496.47;5111650;28;20031;-74
2022/04/20 03:26:54;;;;;;;8.20;5.50;;;;;;;6.92;60.65;101503.38;5110382;28;20383;-73
2022/04/20 03:29:19;;;;;;;8.40;4.88;;;;;;;6.95;60.14;101505.13;5110163;28;20036;-73
2022/04/20 03:31:44;;;;;;;10.02;5.00;;;;;;;6.89;60.27;101512.88;5099817;28;20019;-73
2022/04/20 03:34:11;;;;;;;8.23;4.85;;;;;;;6.89;59.50;101510.28;5112028;28;20050;-73
2022/04/20 03:36:37;;;;;;;9.43;4.80;;;;;;;6.87;60.67;101514.63;5107220;28;20028;-74
2022/04/20 03:39:03;;;;;;;6.53;4.70;;;;;;;6.84;60.47;101518.06;5109721;28;20027;-73
2022/04/20 03:41:28;;;;;;;7.25;4.75;;;;;;;6.80;61.14;101519.78;5108768;28;20034;-73
2022/04/20 03:43:54;;;;;;;8.45;5.07;;;;;;;6.79;60.84;101514.59;5112215;28;20028;-74
2022/04/20 03:46:21;;;;;;;9.57;4.80;;;;;;;6.75;60.79;101518.91;5109721;28;20035;-73
2022/04/20 03:48:46;;;;;;;7.53;5.38;;;;;;;6.69;60.48;101526.66;5109642;28;20028;-73
2022/04/20 03:51:11;;;;;;;7.30;4.95;;;;;;;6.57;59.90;101511.03;5108137;28;20034;-74
2022/04/20 03:53:37;;;;;;;7.75;5.10;;;;;;;6.48;61.11;101513.63;5106937;28;20068;-73
2022/04/20 03:56:03;;;;;;;6.75;5.10;;;;;;;6.47;61.39;101520.50;5111602;28;20027;-74
2022/04/20 03:58:28;;;;;;;10.30;5.25;;;;;;;6.47;60.75;101509.28;5111987;28;20027;-73
2022/04/20 04:00:54;;;;;;;7.57;4.93;;;;;;;6.47;60.86;101522.22;5108823;28;20050;-73
2022/04/20 04:03:19;;;;;;;7.10;5.18;;;;;;;6.42;60.85;101513.59;5109328;28;20031;-73
2022/04/20 04:05:44;;;;;;;8.48;5.60;;;;;;;6.53;61.78;101525.72;5111806;28;20444;-73
2022/04/20 04:08:10;;;;;;;8.98;5.30;;;;;;;6.51;60.41;101527.44;5109089;28;20043;-73
2022/04/20 04:10:35;;;;;;;10.77;5.93;;;;;;;6.52;60.97;101525.72;5111697;28;20034;-74
2022/04/20 04:13:01;;;;;;;9.50;5.47;;;;;;;6.49;61.71;101536.06;5110372;28;20073;-73
2022/04/20 04:15:27;;;;;;;8.48;6.85;;;;;;;6.47;61.32;101528.28;5107993;28;20106;-73
2022/04/20 04:17:58;;;;;;;8.70;5.28;;;;;;;6.47;61.12;101535.19;5111741;28;20054;-74
2022/04/20 04:20:26;;;;;;;9.40;5.47;;;;;;;6.45;61.62;101532.59;5111613;28;20023;-74
2022/04/20 04:22:51;;;;;;;8.20;5.40;;;;;;;6.34;61.43;101529.06;5108961;28;20032;-74
2022/04/20 04:25:16;;;;;;;9.77;5.20;;;;;;;6.36;60.90;101542.91;5094257;28;20035;-73
2022/04/20 04:27:42;;;;;;;9.32;5.60;;;;;;;6.35;61.52;101548.97;5091281;28;20024;-73
2022/04/20 04:30:08;;;;;;;6.88;5.25;;;;;;;6.30;61.10;101550.66;5101494;28;20024;-73
2022/04/20 04:32:33;;;;;;;9.45;5.00;;;;;;;6.25;61.75;101547.19;5112251;28;20050;-73
2022/04/20 04:34:59;;;;;;;10.30;5.05;;;;;;;6.28;61.95;101554.97;5116108;27;20387;-73
2022/04/20 04:37:24;;;;;;;10.75;5.57;;;;;;;6.29;62.13;101549.78;5115265;28;20027;-73
2022/04/20 04:39:50;;;;;;;7.82;4.63;;;;;;;6.31;61.94;101548.09;5115475;28;20103;-73
2022/04/20 04:42:15;;;;;;;10.77;5.30;;;;;;;6.29;62.68;101552.38;5112418;28;20032;-73
2022/04/20 04:44:40;;;;;;;11.35;5.30;;;;;;;6.25;62.28;101563.59;5110731;28;20031;-74
2022/04/20 04:49:50;;;;;;;8.05;4.85;;;;;;;6.23;62.61;101567.88;5112917;28;20364;-73
2022/04/20 04:52:15;;;;;;;11.63;5.47;;;;;;;6.29;62.98;101577.41;5112846;28;20040;-73
2022/04/20 04:54:41;;;;;;;11.07;5.55;;;;;;;6.28;63.37;101575.69;5110010;27;20036;-73
2022/04/20 04:57:07;;;;;;;14.25;5.70;;;;;;;6.26;62.30;101573.06;5114053;28;20200;-73
2022/04/20 04:59:34;;;;;;;10.07;5.25;;;;;;;6.26;63.08;101580.84;5115029;28;20175;-73
2022/04/20 05:02:00;;;;;;;13.57;5.72;;;;;;;6.27;62.70;101577.38;5109944;28;20110;-73
2022/04/20 05:04:25;;;;;;;12.65;5.70;;;;;;;6.26;62.54;101570.47;5113031;27;20102;-73
2022/04/20 05:06:50;;;;;;;10.25;5.22;;;;;;;6.25;63.32;101573.94;5114810;28;20028;-73
2022/04/20 05:09:16;;;;;;;8.60;5.30;;;;;;;6.28;62.60;101573.09;5112499;28;20059;-73
2022/04/20 05:11:42;;;;;;;14.60;5.60;;;;;;;6.31;63.04;101566.22;5110074;28;20023;-73
2022/04/20 05:14:08;;;;;;;17.70;5.80;;;;;;;6.34;62.86;101570.50;5112925;28;20032;-73
2022/04/20 05:16:34;;;;;;;9.23;5.55;;;;;;;6.40;63.20;101569.69;5114058;28;20532;-73
2022/04/20 05:19:00;;;;;;;11.85;6.00;;;;;;;6.42;63.03;101563.66;5112996;28;20054;-73
2022/04/20 05:21:25;;;;;;;14.75;6.32;;;;;;;6.47;62.37;101574.91;5114102;28;20063;-73
2022/04/20 05:23:50;;;;;;;10.50;5.50;;;;;;;6.56;62.02;101571.50;5111720;28;20032;-74
2022/04/20 05:26:15;;;;;;;14.55;6.00;;;;;;;6.60;61.94;101575.84;5111220;28;20114;-73
2022/04/20 05:28:41;;;;;;;10.43;5.55;;;;;;;6.61;61.60;101567.22;5114259;28;20509;-73
2022/04/20 05:31:06;;;;;;;10.13;5.50;;;;;;;6.75;61.58;101575.91;5113174;28;20031;-73
2022/04/20 05:33:31;;;;;;;10.88;6.07;;;;;;;6.79;61.80;101577.63;5111025;28;20043;-73
2022/04/20 05:35:57;;;;;;;15.23;6.22;;;;;;;6.86;61.65;101585.44;5113040;28;20152;-73
2022/04/20 05:43:49;;;;;;;15.55;5.93;;;;;;;7.04;60.21;101583.78;5111666;28;20573;-73
2022/04/20 05:46:15;;;;;;;9.40;5.78;;;;;;;7.10;62.12;101593.31;5112716;28;20068;-73
2022/04/20 05:48:40;;;;;;;10.10;5.25;;;;;;;7.14;60.06;101584.69;5112495;28;20027;-73
2022/04/20 05:51:07;;;;;;;10.55;5.57;;;;;;;7.21;60.81;101586.41;5112678;28;20035;-73
2022/04/20 05:53:32;;;;;;;12.98;6.13;;;;;;;7.27;60.38;101594.22;5112725;28;20040;-73
2022/04/20 05:55:58;;;;;;;14.05;5.63;;;;;;;7.35;59.66;101589.03;5112644;27;20034;-73
2022/04/20 05:58:23;;;;;;;11.95;5.70;;;;;;;7.36;58.78;101579.53;5114533;28;20537;-73
2022/04/20 06:00:48;;;;;;;12.35;5.43;;;;;;;7.42;59.31;101587.31;5108885;28;20043;-73
2022/04/20 06:03:13;;;;;;;11.05;5.90;;;;;;;7.48;59.75;101582.13;5113523;28;20027;-73
2022/04/20 06:05:39;;;;;;;12.50;6.32;;;;;;;7.54;59.47;101582.16;5112794;28;20038;-73
2022/04/20 06:08:04;;;;;;;11.73;5.68;;;;;;;7.60;58.59;101586.47;5095205;28;20063;-73
2022/04/20 06:10:32;;;;;;;13.55;5.63;;;;;;;7.62;58.69;101583.03;5093167;28;20399;-73
2022/04/20 06:12:58;;;;;;;10.73;5.80;;;;;;;7.72;59.19;101584.75;5093796;28;20439;-73
2022/04/20 06:15:23;;;;;;;18.38;5.95;;;;;;;7.78;59.40;101593.41;5114235;27;20118;-73
2022/04/20 06:17:48;;;;;;;10.88;5.70;;;;;;;7.83;58.64;101587.34;5108933;27;20028;-73
2022/04/20 06:20:13;;;;;;;11.50;5.88;;;;;;;7.89;57.82;101586.50;5111507;28;20029;-73
2022/04/20 06:22:38;;;;;;;9.70;6.00;;;;;;;7.98;59.25;101591.69;5112467;28;20384;-73
2022/04/20 06:25:04;;;;;;;12.23;6.30;;;;;;;8.06;58.36;101596.84;5112373;27;20104;-73
2022/04/20 06:27:30;;;;;;;13.60;5.90;;;;;;;8.10;56.39;101595.97;5110382;28;20498;-72
2022/04/20 06:29:56;;;;;;;11.85;5.75;;;;;;;8.16;57.77;101594.25;5109770;28;20059;-73
2022/04/20 06:32:23;;;;;;;8.30;5.50;;;;;;;8.23;57.86;101591.63;5113873;27;20457;-73
2022/04/20 06:34:49;;;;;;;9.57;5.72;;;;;;;8.31;57.05;101600.28;5115025;27;20058;-73
2022/04/20 06:37:14;;;;;;;11.32;5.75;;;;;;;8.37;57.90;101600.25;5112095;28;20398;-73
2022/04/20 06:39:40;;;;;;;8.48;5.55;;;;;;;8.41;57.96;101596.84;5112879;28;20018;-73
2022/04/20 06:42:07;;;;;;;7.70;5.70;;;;;;;8.49;56.18;101602.88;5113652;28;20035;-73
2022/04/20 06:44:33;;;;;;;10.07;5.70;;;;;;;8.55;56.55;101597.66;5110828;28;20118;-73
2022/04/20 06:46:58;;;;;;;13.20;6.65;;;;;;;8.63;56.20;101608.00;5112500;28;20119;-73
2022/04/20 06:49:24;;;;;;;8.20;5.50;;;;;;;8.65;55.66;101594.16;5112642;28;20031;-73
2022/04/20 07:00:01;;;;;;;9.95;5.53;;;;;;;9.01;55.61;101605.28;5103318;28;20043;-75
2022/04/20 07:02:26;;;;;;;8.75;5.00;;;;;;;9.09;56.59;101598.31;5112238;28;20032;-74
2022/04/20 07:04:51;;;;;;;7.82;5.38;;;;;;;9.14;54.78;101593.06;5111290;28;20475;-74
2022/04/20 07:07:16;;;;;;;7.28;5.40;;;;;;;9.19;53.53;101585.22;5113160;28;20068;-74
2022/04/20 07:09:42;;;;;;;10.55;5.65;;;;;;;9.32;56.11;101599.91;5112521;28;20070;-74
2022/04/20 07:12:07;;;;;;;8.98;5.50;;;;;;;9.43;56.03;101602.44;5112202;28;20391;-74
2022/04/20 07:14:33;;;;;;;10.52;5.22;;;;;;;9.51;54.41;101600.63;5112202;28;20043;-74
2022/04/20 07:16:59;;;;;;;9.93;5.20;;;;;;;9.57;53.51;101601.47;5112849;28;20024;-74
2022/04/20 07:19:24;;;;;;;8.50;5.43;;;;;;;9.66;53.93;101599.69;5112193;28;20020;-74
2022/04/20 07:21:49;;;;;;;9.88;5.22;;;;;;;9.75;52.28;101597.00;5112414;28;20853;-74
2022/04/20 07:24:14;;;;;;;12.75;5.47;;;;;;;9.82;52.78;101598.69;5112922;28;20484;-74
2022/04/20 07:26:40;;;;;;;10.23;5.43;;;;;;;9.87;52.03;101588.22;5111446;28;20032;-74
2022/04/20 07:29:05;;;;;;;7.22;5.18;;;;;;;9.94;51.49;101589.88;5112702;28;20467;-74
2022/04/20 07:31:30;;;;;;;8.55;5.38;;;;;;;9.99;52.20;101591.56;5111845;28;20102;-74
2022/04/20 07:33:55;;;;;;;9.40;5.35;;;;;;;10.03;51.93;101590.66;5111876;28;20037;-74
2022/04/20 07:36:21;;;;;;;8.50;4.95;;;;;;;10.14;53.22;101598.41;5112717;28;20023;-74
2022/04/20 07:38:48;;;;;;;9.68;5.20;;;;;;;10.28;52.54;101601.75;5111484;28;20103;-74
2022/04/20 07:41:14;;;;;;;9.18;5.20;;;;;;;10.30;50.91;101591.31;5112488;28;20466;-74
2022/04/20 07:43:39;;;;;;;9.02;4.90;;;;;;;10.42;50.96;101593.78;5112053;28;20069;-74
2022/04/20 07:46:04;;;;;;;9.50;4.82;;;;;;;10.53;54.04;101597.16;5111630;28;20123;-74
2022/04/20 07:48:30;;;;;;;9.07;4.93;;;;;;;10.58;50.63;101601.44;5112267;28;20027;-74
2022/04/20 07:50:55;;;;;;;11.30;5.20;;;;;;;10.68;50.79;101606.53;5112607;28;20072;-74
2022/04/20 07:53:20;;;;;;;6.75;5.32;;;;;;;10.75;50.19;101609.94;5111519;28;20101;-74
2022/04/20 07:55:46;;;;;;;9.23;4.78;;;;;;;10.81;50.31;101604.63;5111813;28;20382;-74
2022/04/20 07:58:12;;;;;;;7.07;5.28;;;;;;;10.91;50.07;101606.25;5112363;28;20024;-74
2022/04/20 08:00:38;;;;;;;12.00;5.68;;;;;;;11.01;49.51;101610.47;5111005;28;20023;-74
2022/04/20 08:03:10;;;;;;;9.68;4.85;;;;;;;11.07;49.86;101601.69;5112539;28;20479;-74
2022/04/20 08:05:36;;;;;;;7.70;5.05;;;;;;;11.17;49.72;101603.28;5113916;28;20027;-74
2022/04/20 08:08:01;;;;;;;7.38;4.95;;;;;;;11.25;49.58;101609.28;5115972;28;20034;-74
2022/04/20 08:10:26;;;;;;;9.02;5.25;;;;;;;11.34;48.21;101613.50;5116473;28;20114;-74
2022/04/20 08:12:51;;;;;;;7.18;4.93;;;;;;;11.39;48.50;101616.06;5115751;28;20059;-74
2022/04/20 08:15:17;;;;;;;10.35;4.85;;;;;;;11.46;48.60;101608.09;5115756;28;20038;-74
2022/04/20 08:17:42;;;;;;;9.73;4.75;;;;;;;11.55;48.01;101616.69;5115878;28;20028;-74
2022/04/20 08:20:09;;;;;;;7.30;4.90;;;;;;;11.67;47.41;101611.25;5116466;28;20468;-74
2022/04/20 08:22:42;;;;;;;11.75;5.20;;;;;;;11.72;48.76;101604.22;5115028;28;20066;-74
2022/04/20 08:25:11;;;;;;;;;;;;;;;11.82;48.51;101605.81;5116613;28;20023;-74
2022/04/20 08:27:37;;;;;;;10.55;5.32;;;;;;;11.97;47.76;101615.19;5115423;28;19994;-74
2022/04/20 08:30:04;;;;;;;6.82;5.10;;;;;;;12.10;47.92;101608.00;5115456;28;20429;-74
2022/04/20 08:32:30;;;;;;;10.48;5.80;;;;;;;12.17;47.37;101607.00;5115858;28;20033;-74
2022/04/20 08:34:56;;;;;;;8.95;4.85;;;;;;;12.25;46.61;101609.47;5115053;28;20035;-74
2022/04/20 08:37:21;;;;;;;10.55;5.60;;;;;;;12.37;46.92;101610.09;5116016;28;20016;-74
2022/04/20 08:39:46;;;;;;;10.07;5.07;;;;;;;12.52;45.73;101611.53;5115348;28;20024;-75
2022/04/20 08:42:16;;;;;;;11.18;5.45;;;;;;;12.53;45.72;101613.28;5114965;27;20898;-75
2022/04/20 08:44:44;;;;;;;11.50;5.68;;;;;;;12.63;46.37;101611.34;5115592;28;20395;-75
2022/04/20 08:47:16;;;;;;;11.93;5.28;;;;;;;12.71;46.26;101614.66;5115883;28;20016;-74
2022/04/20 08:49:43;;;;;;;8.27;5.18;;;;;;;12.77;44.56;101604.06;5114896;28;20019;-74
2022/04/20 08:54:56;;;;;;;11.93;5.32;;;;;;;13.01;46.35;101607.06;5115156;28;20406;-74
2022/04/20 08:57:23;;;;;;;9.15;5.47;;;;;;;13.16;45.93;101601.50;5115073;28;20023;-74
2022/04/20 08:59:50;;;;;;;10.80;5.53;;;;;;;13.32;45.33;101602.94;5114883;28;20024;-74
2022/04/20 09:02:20;;;;;;;8.05;5.50;;;;;;;13.42;45.34;101606.19;5104241;27;20035;-74
2022/04/20 09:04:46;;;;;;;9.43;5.30;;;;;;;13.49;42.82;101596.44;5095589;28;20126;-75
2022/04/20 09:07:14;;;;;;;8.85;5.35;;;;;;;13.55;41.89;101601.53;5102106;27;20100;-75
2022/04/20 09:09:40;;;;;;;10.07;5.28;;;;;;;13.64;43.41;101587.38;5114886;28;20028;-75
2022/04/20 09:12:19;;;;;;;12.95;5.45;;;;;;;13.68;43.12;101599.50;5100401;28;20484;-74
2022/04/20 09:14:48;;;;;;;8.27;4.65;;;;;;;13.85;43.41;101591.19;5107076;27;20035;-75
2022/04/20 09:17:17;;;;;;;10.18;5.63;;;;;;;13.97;41.70;101588.28;5133323;27;20038;-75
2022/04/20 09:19:48;;;;;;;10.55;4.80;;;;;;;14.05;41.83;101592.41;5135026;27;20023;-75
2022/04/20 09:22:32;;;;;;;10.93;5.20;;;;;;;14.14;42.43;101595.69;5135951;27;20020;-75
2022/04/20 09:25:05;;;;;;;8.55;4.80;;;;;;;14.27;40.51;101584.84;5135012;27;20023;-75
2022/04/20 09:27:31;;;;;;;9.05;4.95;;;;;;;14.40;41.86;101589.75;5135371;27;20024;-75
2022/04/20 09:29:58;;;;;;;7.93;4.40;;;;;;;14.49;42.32;101587.75;5115346;27;21577;-75
2022/04/20 09:32:37;;;;;;;6.25;3.90;;;;;;;14.61;41.10;101585.69;5093801;28;20036;-75
2022/04/20 09:35:06;;;;;;;8.38;4.47;;;;;;;14.66;40.25;101578.56;5095891;28;20063;-75
2022/04/20 09:37:32;;;;;;;6.63;4.15;;;;;;;14.74;41.07;101585.28;5097824;27;20198;-75
2022/04/20 09:39:58;;;;;;;6.32;4.20;;;;;;;14.79;40.28;101568.56;5104421;28;20110;-75
2022/04/20 09:42:24;;;;;;;8.52;3.88;;;;;;;14.91;38.78;101571.69;5112738;28;20020;-75
2022/04/20 09:44:55;;;;;;;6.65;3.80;;;;;;;15.05;40.83;101567.78;5102245;28;20493;-75
2022/04/20 09:50:10;;;;;;;5.95;4.20;;;;;;;15.10;37.63;101564.09;5111039;27;20034;-75
2022/04/20 09:52:41;;;;;;;6.80;4.32;;;;;;;15.14;38.47;101562.25;5112810;27;20128;-75
2022/04/20 09:55:10;;;;;;;9.60;3.78;;;;;;;15.20;37.14;101568.19;5105622;27;20039;-74
2022/04/20 09:57:37;;;;;;;10.27;3.90;;;;;;;15.23;38.77;101560.19;5113470;28;20035;-74
2022/04/20 10:00:15;;;;;;;5.20;3.67;;;;;;;15.33;38.32;101558.13;5113680;27;20035;-75
2022/04/20 10:02:53;;;;;;;6.32;3.55;;;;;;;15.60;38.77;101559.03;5102812;27;20364;-74
2022/04/20 10:05:23;;;;;;;8.30;3.88;;;;;;;15.58;37.21;101557.34;5097967;28;20467;-74
2022/04/20 10:07:48;;;;;;;17.27;4.43;;;;;;;15.53;37.02;101551.38;5110488;28;20031;-74
2022/04/20 10:10:14;;;;;;;5.78;4.03;;;;;;;15.55;37.32;101546.94;5111270;28;20394;-74
2022/04/20 10:12:42;;;;;;;10.82;4.18;;;;;;;15.56;36.23;101553.91;5112847;28;20023;-76
2022/04/20 10:18:24;;;;;;;6.03;4.00;;;;;;;15.63;37.60;101545.78;5091106;28;20368;-75
2022/04/20 10:20:54;;;;;;;5.30;3.88;;;;;;;15.76;36.93;101542.75;5090095;28;20032;-75
2022/04/20 10:23:21;;;;;;;6.30;3.50;;;;;;;15.95;37.52;101537.72;5092858;28;20446;-74
2022/04/20 10:25:48;;;;;;;5.47;3.97;;;;;;;16.15;37.70;101535.25;5092918;28;20028;-75
2022/04/20 10:28:21;;;;;;;5.07;3.72;;;;;;;16.25;36.69;101538.41;5091894;28;20032;-74
2022/04/20 10:30:58;;;;;;;7.43;4.07;;;;;;;16.41;37.00;101536.09;5092935;28;20038;-75
2022/04/20 10:33:24;;;;;;;9.27;3.97;;;;;;;16.50;37.05;101533.13;5093302;28;20054;-75
2022/04/20 10:36:13;;;;;;;5.85;3.90;;;;;;;16.55;37.05;101536.44;5091897;28;20032;-75
2022/04/20 10:38:39;;;;;;;6.35;3.90;;;;;;;16.67;37.30;101535.13;5091983;28;20118;-75
2022/04/20 10:41:13;;;;;;;8.10;3.80;;;;;;;16.82;37.15;101534.56;5113523;28;20155;-75
2022/04/20 10:43:42;;;;;;;4.07;3.40;;;;;;;16.81;37.69;101519.69;5112187;28;20024;-75
2022/04/20 10:46:15;;;;;;;11.15;4.10;;;;;;;16.96;35.17;101519.06;5113464;28;20401;-75
2022/04/20 10:48:44;;;;;;;;;;;;;;;17.07;37.18;101532.69;5112306;28;20383;-75
2022/04/20 10:51:17;;;;;;;10.48;3.78;;;;;;;16.99;33.97;101518.97;5092147;27;20358;-74
2022/04/20 10:53:46;;;;;;;4.57;3.83;;;;;;;16.95;33.63;101520.00;5102369;28;20040;-74
2022/04/20 10:56:12;;;;;;;5.90;3.63;;;;;;;17.03;34.47;101507.38;5088816;28;20467;-74
2022/04/20 10:58:38;;;;;;;5.68;3.40;;;;;;;17.19;34.48;101515.53;5095838;28;20035;-74
2022/04/20 11:01:11;;;;;;;6.80;3.60;;;;;;;17.22;34.44;101522.47;5109831;28;20032;-74
2022/04/20 11:03:58;;;;;;;7.70;4.10;;;;;;;17.37;35.29;101511.31;5108426;28;20172;-74
2022/04/20 11:06:46;;;;;;;5.38;3.25;;;;;;;17.41;35.30;101514.66;5109813;28;20039;-76
2022/04/20 11:09:50;;;;;;;4.47;3.80;;;;;;;17.50;35.38;101507.22;5108815;28;20114;-74
2022/04/20 11:21:03;;;;;;;6.60;3.10;;;;;;;17.94;32.82;101486.03;5088595;28;20113;-74
2022/04/20 11:23:48;;;;;;;7.03;3.00;;;;;;;18.01;33.53;101495.38;5103566;28;20048;-74
2022/04/20 11:26:17;;;;;;;5.47;2.72;;;;;;;18.18;34.57;101496.41;5109422;28;20020;-74
2022/04/20 11:28:43;;;;;;;4.20;3.15;;;;;;;18.33;33.29;101477.25;5108646;28;20023;-74
2022/04/20 11:31:09;;;;;;;5.43;3.60;;;;;;;18.51;32.81;101491.41;5108462;28;20035;-75
2022/04/20 11:33:35;;;;;;;6.32;3.40;;;;;;;18.57;31.95;101480.53;5108493;28;20081;-74
2022/04/20 11:36:01;;;;;;;5.32;3.42;;;;;;;18.70;33.48;101480.81;5109302;28;20122;-75
2022/04/20 11:38:42;;;;;;;4.63;3.55;;;;;;;18.88;33.88;101468.56;5098430;28;20035;-75
2022/04/20 11:41:11;;;;;;;3.55;3.15;;;;;;;19.19;33.86;101467.91;5109166;28;20054;-75
2022/04/20 11:43:37;;;;;;;5.03;3.00;;;;;;;19.29;31.66;101474.47;5108169;28;20118;-75
2022/04/20 11:46:04;;;;;;;3.78;2.97;;;;;;;19.67;32.94;101466.41;5108469;28;20072;-75
2022/04/20 11:48:30;;;;;;;3.85;3.17;;;;;;;20.32;32.01;101455.91;5108636;28;20024;-75
2022/04/20 11:50:57;;;;;;;5.47;3.38;;;;;;;20.87;29.22;101449.38;5108607;28;20070;-75
2022/04/20 11:53:38;;;;;;;3.72;3.22;;;;;;;21.86;29.82;101445.28;5103339;28;20379;-75
2022/04/20 11:56:07;;;;;;;5.20;3.33;;;;;;;22.49;26.21;101452.00;5088399;28;20384;-75
2022/04/20 11:58:33;;;;;;;5.97;3.20;;;;;;;23.37;26.83;101445.31;5088357;28;20031;-75
2022/04/20 12:01:00;;;;;;;4.93;2.80;;;;;;;24.11;24.64;101450.94;5083697;28;20024;-75
2022/04/20 12:03:29;;;;;;;13.48;4.15;;;;;;;24.18;23.76;101446.84;5074840;28;20040;-75